Time;durP1;ratioP1;P1;durP2;ratioP2;P2;SDS_P1;SDS_P2;PMS_P1;PMS_P2;Temp;Humidity;BMP_temperature;BMP_pressure;BME280_temperature;BME280_humidity;BME280_pressure;Samples;Min_cycle;Max_cycle;Signal;HPM_P1;HPM_P2
2023/06/29 00:00:19;;;;;;;32.25;25.38;;;;;;;;;;4953505;28;20239;-60
2023/06/29 00:02:45;;;;;;;29.27;24.80;;;;;;;;;;4954801;28;20234;-60
2023/06/29 00:05:10;;;;;;;36.10;26.73;;;;;;;;;;4954098;28;20219;-60
2023/06/29 00:07:36;;;;;;;32.35;25.85;;;;;;;;;;4950364;28;20344;-60
2023/06/29 00:10:01;;;;;;;34.03;25.65;;;;;;;;;;4945329;28;20227;-60
2023/06/29 00:12:27;;;;;;;30.20;25.23;;;;;;;;;;4944374;28;20297;-61
2023/06/29 00:14:52;;;;;;;31.40;24.95;;;;;;;;;;4945145;28;21119;-60
2023/06/29 00:17:19;;;;;;;28.35;23.48;;;;;;;;;;4944590;28;20783;-61
2023/06/29 00:19:45;;;;;;;29.15;24.45;;;;;;;;;;4941383;28;20425;-61
2023/06/29 00:22:10;;;;;;;27.40;23.40;;;;;;;;;;4936688;28;20309;-60
2023/06/29 00:24:42;;;;;;;29.30;24.90;;;;;;;;;;4954900;28;20730;-61
2023/06/29 00:27:08;;;;;;;32.40;27.15;;;;;;;;;;4958408;28;20228;-61
2023/06/29 00:29:33;;;;;;;31.15;25.70;;;;;;;;;;4962933;28;20226;-61
2023/06/29 00:31:58;;;;;;;35.50;26.90;;;;;;;;;;4963507;28;20312;-60
2023/06/29 00:34:23;;;;;;;32.42;26.20;;;;;;;;;;4962424;28;20217;-60
2023/06/29 00:36:49;;;;;;;32.60;27.40;;;;;;;;;;4963515;28;20300;-60
2023/06/29 00:39:14;;;;;;;34.40;26.40;;;;;;;;;;4963013;28;20340;-60
2023/06/29 00:41:39;;;;;;;33.03;26.92;;;;;;;;;;4961174;28;20222;-61
2023/06/29 00:44:07;;;;;;;32.30;27.35;;;;;;;;;;4955229;28;20700;-61
2023/06/29 00:46:33;;;;;;;36.20;27.83;;;;;;;;;;4946471;28;20796;-60
2023/06/29 00:48:58;;;;;;;32.38;27.27;;;;;;;;;;4936992;28;20218;-61
2023/06/29 00:51:24;;;;;;;33.25;27.67;;;;;;;;;;4960953;28;20308;-60
2023/06/29 00:53:49;;;;;;;33.67;27.00;;;;;;;;;;4963479;28;20567;-60
2023/06/29 00:56:15;;;;;;;33.05;27.13;;;;;;;;;;4961759;28;20237;-60
2023/06/29 00:58:40;;;;;;;34.78;28.38;;;;;;;;;;4963520;28;20316;-60
2023/06/29 01:01:05;;;;;;;32.38;27.45;;;;;;;;;;4961243;28;20348;-61
2023/06/29 01:03:31;;;;;;;33.17;27.42;;;;;;;;;;4962600;28;20284;-60
2023/06/29 01:05:56;;;;;;;34.22;28.48;;;;;;;;;;4955248;28;20308;-61
2023/06/29 01:08:22;;;;;;;34.97;28.42;;;;;;;;;;4950860;28;20276;-61
2023/06/29 01:10:48;;;;;;;31.42;27.38;;;;;;;;;;4935196;28;20225;-60
2023/06/29 01:13:14;;;;;;;33.17;28.55;;;;;;;;;;4942249;28;20316;-60
2023/06/29 01:15:39;;;;;;;30.83;26.58;;;;;;;;;;4944267;28;20636;-61
2023/06/29 01:18:04;;;;;;;32.75;26.98;;;;;;;;;;4943323;28;20241;-60
2023/06/29 01:20:31;;;;;;;33.05;28.42;;;;;;;;;;4943677;28;20215;-60
2023/06/29 01:22:59;;;;;;;38.33;28.50;;;;;;;;;;4962128;28;20222;-61
2023/06/29 01:25:24;;;;;;;35.80;28.90;;;;;;;;;;4960983;28;20213;-60
2023/06/29 01:27:49;;;;;;;33.85;27.98;;;;;;;;;;4957367;28;20224;-60
2023/06/29 01:30:15;;;;;;;35.33;28.67;;;;;;;;;;4954115;28;20225;-61
2023/06/29 01:32:40;;;;;;;35.53;27.98;;;;;;;;;;4954694;28;20228;-60
2023/06/29 01:35:07;;;;;;;34.72;27.98;;;;;;;;;;4958344;28;20221;-60
2023/06/29 01:37:38;;;;;;;37.92;30.15;;;;;;;;;;4961039;28;20218;-60
2023/06/29 01:40:06;;;;;;;36.97;28.30;;;;;;;;;;4961432;28;20684;-60
2023/06/29 01:42:32;;;;;;;33.97;28.27;;;;;;;;;;4964985;28;20636;-60
2023/06/29 01:44:58;;;;;;;34.03;28.17;;;;;;;;;;4964242;28;20309;-60
2023/06/29 01:47:23;;;;;;;33.55;27.50;;;;;;;;;;4964597;28;20209;-60
2023/06/29 01:49:49;;;;;;;34.83;29.63;;;;;;;;;;4962923;28;20242;-60
2023/06/29 01:52:14;;;;;;;32.35;27.88;;;;;;;;;;4957794;28;20607;-60
2023/06/29 01:54:39;;;;;;;37.35;28.50;;;;;;;;;;4956866;28;20404;-61
2023/06/29 01:57:05;;;;;;;36.40;28.88;;;;;;;;;;4959773;28;20243;-60
2023/06/29 01:59:30;;;;;;;35.92;29.80;;;;;;;;;;4965690;28;20300;-61
2023/06/29 02:01:56;;;;;;;35.72;28.02;;;;;;;;;;4965958;28;20224;-60
2023/06/29 02:04:21;;;;;;;36.00;29.52;;;;;;;;;;4965734;28;20224;-60
2023/06/29 02:06:46;;;;;;;34.72;29.23;;;;;;;;;;4965441;28;20245;-60
2023/06/29 02:09:12;;;;;;;34.72;27.35;;;;;;;;;;4956569;28;20227;-61
2023/06/29 02:11:37;;;;;;;34.50;27.98;;;;;;;;;;4946668;28;20219;-61
2023/06/29 02:14:02;;;;;;;35.85;27.70;;;;;;;;;;4939137;28;20234;-61
2023/06/29 02:16:28;;;;;;;33.05;27.73;;;;;;;;;;4938357;28;20501;-61
2023/06/29 02:18:53;;;;;;;35.72;28.50;;;;;;;;;;4939609;28;20222;-60
2023/06/29 02:21:19;;;;;;;36.95;28.75;;;;;;;;;;4944938;28;20215;-61
2023/06/29 02:23:45;;;;;;;33.03;27.63;;;;;;;;;;4946796;28;20670;-60
2023/06/29 02:26:10;;;;;;;35.20;28.60;;;;;;;;;;4945997;28;20511;-60
2023/06/29 02:28:36;;;;;;;36.03;28.80;;;;;;;;;;4946195;28;20597;-60
2023/06/29 02:31:01;;;;;;;34.00;27.77;;;;;;;;;;4946151;28;20238;-61
2023/06/29 02:33:27;;;;;;;36.75;28.75;;;;;;;;;;4945797;28;20219;-61
2023/06/29 02:35:52;;;;;;;33.15;27.52;;;;;;;;;;4941811;28;20214;-60
2023/06/29 02:38:17;;;;;;;37.70;29.77;;;;;;;;;;4938090;28;20231;-61
2023/06/29 02:40:43;;;;;;;36.13;29.10;;;;;;;;;;4949143;28;20297;-61
2023/06/29 02:43:08;;;;;;;34.22;28.70;;;;;;;;;;4974056;28;20217;-60
2023/06/29 02:45:33;;;;;;;33.75;27.58;;;;;;;;;;4974290;28;20309;-61
2023/06/29 02:47:59;;;;;;;35.40;27.95;;;;;;;;;;4954884;28;20218;-60
2023/06/29 02:50:24;;;;;;;34.55;28.30;;;;;;;;;;4955752;28;20263;-60
2023/06/29 02:52:49;;;;;;;35.50;29.45;;;;;;;;;;4955581;28;20583;-60
2023/06/29 02:55:15;;;;;;;35.35;28.95;;;;;;;;;;4954554;28;20215;-60
2023/06/29 02:57:40;;;;;;;36.90;29.40;;;;;;;;;;4944539;28;20228;-60
2023/06/29 03:00:07;;;;;;;35.40;29.17;;;;;;;;;;4944247;28;20290;-60
2023/06/29 03:02:32;;;;;;;34.20;28.70;;;;;;;;;;4945133;28;20246;-60
2023/06/29 03:04:58;;;;;;;34.88;28.00;;;;;;;;;;4945985;28;20340;-61
2023/06/29 03:07:23;;;;;;;34.58;28.67;;;;;;;;;;4945623;28;20210;-60
2023/06/29 03:09:48;;;;;;;38.30;29.80;;;;;;;;;;4949925;28;20333;-60
2023/06/29 03:12:14;;;;;;;34.03;28.45;;;;;;;;;;4945723;28;20279;-60
2023/06/29 03:14:39;;;;;;;36.60;29.50;;;;;;;;;;4942325;28;20313;-60
2023/06/29 03:17:05;;;;;;;37.15;29.90;;;;;;;;;;4937304;28;20214;-60
2023/06/29 03:19:30;;;;;;;37.03;29.90;;;;;;;;;;4939677;28;20692;-60
2023/06/29 03:21:56;;;;;;;33.42;27.92;;;;;;;;;;4960386;28;20214;-60
2023/06/29 03:24:21;;;;;;;34.40;27.98;;;;;;;;;;4963388;28;20218;-60
2023/06/29 03:26:46;;;;;;;41.22;31.17;;;;;;;;;;4945870;28;20782;-61
2023/06/29 03:29:11;;;;;;;34.08;29.17;;;;;;;;;;4945060;28;20571;-61
2023/06/29 03:31:37;;;;;;;38.95;31.15;;;;;;;;;;4944684;28;20222;-60
2023/06/29 03:34:02;;;;;;;37.30;30.92;;;;;;;;;;4945036;28;20277;-60
2023/06/29 03:36:27;;;;;;;36.58;29.67;;;;;;;;;;4944397;28;20770;-61
2023/06/29 03:38:53;;;;;;;38.75;30.38;;;;;;;;;;4937974;28;20365;-61
2023/06/29 03:41:19;;;;;;;41.15;32.15;;;;;;;;;;4951873;28;20221;-61
2023/06/29 03:43:44;;;;;;;39.17;31.42;;;;;;;;;;4937576;28;20772;-61
2023/06/29 03:46:09;;;;;;;40.45;30.67;;;;;;;;;;4944245;28;20309;-61
2023/06/29 03:48:35;;;;;;;40.13;31.27;;;;;;;;;;4945258;28;20300;-60
2023/06/29 03:51:01;;;;;;;38.17;32.17;;;;;;;;;;4944213;28;20313;-61
2023/06/29 03:53:26;;;;;;;38.50;30.50;;;;;;;;;;4963793;28;20558;-60
2023/06/29 03:55:51;;;;;;;39.85;30.70;;;;;;;;;;4958325;28;20241;-61
2023/06/29 03:58:16;;;;;;;38.92;30.75;;;;;;;;;;4943934;28;20222;-60
2023/06/29 04:00:42;;;;;;;40.03;31.48;;;;;;;;;;4939757;28;20263;-61
2023/06/29 04:03:08;;;;;;;41.97;32.65;;;;;;;;;;4935987;28;20254;-60
2023/06/29 04:05:33;;;;;;;40.90;33.05;;;;;;;;;;4936295;28;20337;-60
2023/06/29 04:07:59;;;;;;;41.80;33.42;;;;;;;;;;4942494;28;20230;-60
2023/06/29 04:10:25;;;;;;;39.25;32.20;;;;;;;;;;4944921;28;20214;-60
2023/06/29 04:12:50;;;;;;;47.17;36.28;;;;;;;;;;4943854;28;20222;-60
2023/06/29 04:15:15;;;;;;;44.72;33.28;;;;;;;;;;4955172;28;20201;-61
2023/06/29 04:17:41;;;;;;;44.05;33.42;;;;;;;;;;4972919;28;20210;-60
2023/06/29 04:20:08;;;;;;;42.78;34.53;;;;;;;;;;4972291;28;20221;-60
2023/06/29 04:22:33;;;;;;;46.40;39.75;;;;;;;;;;4972757;28;20422;-60
2023/06/29 04:24:58;;;;;;;45.30;35.88;;;;;;;;;;4973431;28;20293;-61
2023/06/29 04:27:24;;;;;;;47.97;38.30;;;;;;;;;;4971476;28;20809;-60
2023/06/29 04:29:49;;;;;;;42.72;35.05;;;;;;;;;;4972495;28;20637;-60
2023/06/29 04:32:14;;;;;;;45.22;36.80;;;;;;;;;;4972291;28;20709;-60
2023/06/29 04:34:40;;;;;;;40.55;33.35;;;;;;;;;;4972352;28;20273;-61
2023/06/29 04:37:06;;;;;;;40.15;32.42;;;;;;;;;;4972830;28;20378;-60
2023/06/29 04:39:32;;;;;;;41.97;32.38;;;;;;;;;;4973141;28;20230;-59
2023/06/29 04:42:01;;;;;;;39.42;30.23;;;;;;;;;;4972645;28;20224;-60
2023/06/29 04:44:31;;;;;;;51.85;39.10;;;;;;;;;;4972490;28;20720;-60
2023/06/29 04:46:58;;;;;;;41.60;33.67;;;;;;;;;;4960676;28;20245;-59
2023/06/29 04:49:27;;;;;;;42.58;33.17;;;;;;;;;;4953172;28;20236;-59
2023/06/29 04:51:52;;;;;;;42.42;33.92;;;;;;;;;;4954050;28;20218;-59
2023/06/29 04:54:18;;;;;;;46.55;34.53;;;;;;;;;;4952467;28;20269;-59
2023/06/29 04:56:43;;;;;;;46.90;35.83;;;;;;;;;;4953763;28;20238;-60
2023/06/29 04:59:08;;;;;;;58.88;45.03;;;;;;;;;;4953135;28;20635;-59
2023/06/29 05:01:34;;;;;;;51.63;37.42;;;;;;;;;;4951649;29;20222;-60
2023/06/29 05:03:59;;;;;;;54.53;41.38;;;;;;;;;;4953974;28;20234;-59
2023/06/29 05:06:24;;;;;;;50.97;40.85;;;;;;;;;;4953134;28;20225;-59
2023/06/29 05:08:50;;;;;;;59.30;44.47;;;;;;;;;;4959649;28;20222;-59
2023/06/29 05:11:15;;;;;;;53.63;43.53;;;;;;;;;;4972481;28;20300;-59
2023/06/29 05:13:40;;;;;;;58.03;44.45;;;;;;;;;;4973011;28;20233;-59
2023/06/29 05:16:06;;;;;;;52.55;41.08;;;;;;;;;;4972767;28;20245;-59
2023/06/29 05:18:31;;;;;;;55.17;43.15;;;;;;;;;;4976658;28;20646;-59
2023/06/29 05:20:58;;;;;;;52.58;40.67;;;;;;;;;;4976408;28;20681;-59
2023/06/29 05:23:23;;;;;;;54.20;41.38;;;;;;;;;;4975587;28;20220;-60
2023/06/29 05:25:48;;;;;;;52.92;43.53;;;;;;;;;;4976568;28;20217;-60
2023/06/29 05:28:14;;;;;;;50.28;41.65;;;;;;;;;;4976239;28;20255;-60
2023/06/29 05:30:39;;;;;;;50.08;40.90;;;;;;;;;;4975820;28;20240;-60
2023/06/29 05:33:04;;;;;;;52.50;39.92;;;;;;;;;;4976480;28;20656;-60
2023/06/29 05:35:31;;;;;;;49.60;40.17;;;;;;;;;;4976560;28;20235;-59
2023/06/29 05:37:57;;;;;;;51.25;40.08;;;;;;;;;;4975884;28;20214;-59
2023/06/29 05:40:22;;;;;;;45.95;37.92;;;;;;;;;;4976131;28;20296;-60
2023/06/29 05:42:47;;;;;;;49.03;40.40;;;;;;;;;;4976457;28;20206;-60
2023/06/29 05:45:13;;;;;;;46.97;38.95;;;;;;;;;;4975093;28;20214;-59
2023/06/29 05:47:38;;;;;;;44.92;36.22;;;;;;;;;;4976327;28;20217;-59
2023/06/29 05:50:04;;;;;;;50.55;39.78;;;;;;;;;;4975508;28;20226;-59
2023/06/29 05:52:30;;;;;;;46.40;35.60;;;;;;;;;;4976045;28;20249;-60
2023/06/29 05:54:55;;;;;;;46.75;35.70;;;;;;;;;;4976399;28;20221;-60
2023/06/29 05:57:21;;;;;;;43.22;35.95;;;;;;;;;;4974780;28;20669;-60
2023/06/29 05:59:46;;;;;;;47.47;38.30;;;;;;;;;;4976319;28;20217;-59
2023/06/29 06:02:11;;;;;;;49.35;37.70;;;;;;;;;;4975484;28;20228;-60
2023/06/29 06:04:37;;;;;;;44.83;35.78;;;;;;;;;;4975591;28;20301;-60
2023/06/29 06:07:02;;;;;;;44.47;36.42;;;;;;;;;;4975440;28;20696;-60
2023/06/29 06:09:28;;;;;;;43.97;35.90;;;;;;;;;;4975972;28;20229;-60
2023/06/29 06:11:54;;;;;;;47.90;37.00;;;;;;;;;;4975231;28;20213;-60
2023/06/29 06:14:20;;;;;;;42.72;35.10;;;;;;;;;;4975521;28;20224;-60
2023/06/29 06:16:45;;;;;;;43.83;36.38;;;;;;;;;;4975408;28;20225;-60
2023/06/29 06:19:10;;;;;;;50.75;38.40;;;;;;;;;;4974618;28;20313;-60
2023/06/29 06:21:36;;;;;;;49.42;35.90;;;;;;;;;;4975616;28;20292;-60
2023/06/29 06:24:01;;;;;;;47.53;39.00;;;;;;;;;;4975541;28;20228;-60
2023/06/29 06:26:27;;;;;;;45.97;37.60;;;;;;;;;;4974391;28;20236;-59
2023/06/29 06:28:52;;;;;;;58.70;43.75;;;;;;;;;;4975420;28;20738;-59
2023/06/29 06:31:17;;;;;;;44.65;36.95;;;;;;;;;;4975122;28;20304;-59
2023/06/29 06:33:43;;;;;;;46.22;37.05;;;;;;;;;;4974939;28;20268;-60
2023/06/29 06:36:08;;;;;;;44.80;37.30;;;;;;;;;;4975002;28;20214;-60
2023/06/29 06:38:34;;;;;;;45.67;37.28;;;;;;;;;;4974055;28;20272;-59
2023/06/29 06:40:59;;;;;;;52.72;40.17;;;;;;;;;;4974976;28;20218;-60
2023/06/29 06:43:24;;;;;;;48.17;38.15;;;;;;;;;;4974770;28;20646;-59
2023/06/29 06:45:51;;;;;;;45.80;37.25;;;;;;;;;;4975438;28;20733;-60
2023/06/29 06:48:17;;;;;;;45.85;36.10;;;;;;;;;;4973742;28;20218;-60
2023/06/29 06:50:42;;;;;;;47.30;36.78;;;;;;;;;;4975429;28;20317;-60
2023/06/29 06:53:07;;;;;;;43.67;34.47;;;;;;;;;;4974628;28;20249;-59
2023/06/29 06:55:33;;;;;;;45.83;34.92;;;;;;;;;;4974188;28;20228;-60
2023/06/29 06:57:58;;;;;;;46.97;34.70;;;;;;;;;;4975002;28;20214;-60
2023/06/29 07:00:24;;;;;;;42.10;33.75;;;;;;;;;;4974000;28;20229;-59
2023/06/29 07:02:49;;;;;;;46.92;33.53;;;;;;;;;;4974836;28;20210;-59
2023/06/29 07:05:14;;;;;;;45.30;34.63;;;;;;;;;;4974796;28;20345;-60
2023/06/29 07:07:40;;;;;;;45.42;34.05;;;;;;;;;;4973967;28;20218;-60
2023/06/29 07:10:05;;;;;;;41.03;32.97;;;;;;;;;;4974555;28;20221;-59
2023/06/29 07:12:31;;;;;;;40.30;32.95;;;;;;;;;;4974805;28;20225;-60
2023/06/29 07:14:56;;;;;;;44.90;33.03;;;;;;;;;;4974148;28;20216;-60
2023/06/29 07:17:21;;;;;;;42.95;31.60;;;;;;;;;;4974331;28;20615;-59
2023/06/29 07:19:47;;;;;;;41.97;32.38;;;;;;;;;;4974657;28;20571;-60
2023/06/29 07:22:12;;;;;;;36.65;28.45;;;;;;;;;;4973567;28;20739;-60
2023/06/29 07:24:37;;;;;;;39.70;28.73;;;;;;;;;;4974501;28;20559;-60
2023/06/29 07:27:03;;;;;;;36.53;27.15;;;;;;;;;;4974089;28;20225;-60
2023/06/29 07:29:30;;;;;;;34.40;26.27;;;;;;;;;;4973663;28;20308;-59
2023/06/29 07:31:55;;;;;;;34.38;26.35;;;;;;;;;;4974745;28;20217;-59
2023/06/29 07:34:23;;;;;;;35.08;25.88;;;;;;;;;;4973782;28;20224;-60
2023/06/29 07:36:48;;;;;;;38.00;25.98;;;;;;;;;;4973924;28;20214;-60
2023/06/29 07:39:13;;;;;;;34.22;26.38;;;;;;;;;;4971540;28;20287;-59
2023/06/29 07:41:39;;;;;;;35.45;25.80;;;;;;;;;;4974393;28;20309;-60
2023/06/29 07:44:04;;;;;;;36.75;26.02;;;;;;;;;;4972975;28;20218;-60
2023/06/29 07:46:31;;;;;;;33.40;25.30;;;;;;;;;;4974445;28;20210;-60
2023/06/29 07:48:58;;;;;;;36.42;24.75;;;;;;;;;;4973890;28;20748;-59
2023/06/29 07:51:24;;;;;;;34.65;25.42;;;;;;;;;;4973097;28;20214;-59
2023/06/29 07:53:50;;;;;;;34.22;24.58;;;;;;;;;;4973912;28;20593;-60
2023/06/29 07:56:15;;;;;;;35.50;25.27;;;;;;;;;;4973380;28;20713;-60
2023/06/29 07:58:40;;;;;;;34.60;25.02;;;;;;;;;;4973336;28;20225;-60
2023/06/29 08:01:06;;;;;;;33.45;24.88;;;;;;;;;;4973561;28;20220;-58
2023/06/29 08:03:32;;;;;;;33.10;24.23;;;;;;;;;;4973978;28;20214;-60
2023/06/29 08:05:57;;;;;;;32.33;24.30;;;;;;;;;;4972976;28;20715;-60
2023/06/29 08:08:25;;;;;;;34.45;24.42;;;;;;;;;;4973227;28;20222;-59
2023/06/29 08:10:50;;;;;;;34.40;25.58;;;;;;;;;;4971515;28;20218;-60
2023/06/29 08:13:16;;;;;;;33.25;23.67;;;;;;;;;;4973399;28;20244;-60
2023/06/29 08:15:41;;;;;;;33.08;24.73;;;;;;;;;;4973526;28;20222;-60
2023/06/29 08:18:06;;;;;;;30.63;24.50;;;;;;;;;;4972363;28;20661;-59
2023/06/29 08:20:32;;;;;;;34.13;24.80;;;;;;;;;;4973578;28;20225;-60
2023/06/29 08:22:57;;;;;;;33.75;24.60;;;;;;;;;;4973653;28;20210;-60
2023/06/29 08:25:22;;;;;;;33.38;24.80;;;;;;;;;;4972073;28;20568;-60
2023/06/29 08:27:49;;;;;;;34.05;24.25;;;;;;;;;;4973543;28;20719;-60
2023/06/29 08:30:14;;;;;;;33.35;23.80;;;;;;;;;;4972997;28;20229;-60
2023/06/29 08:32:40;;;;;;;28.02;22.17;;;;;;;;;;4972854;28;20225;-60
2023/06/29 08:35:05;;;;;;;28.50;22.77;;;;;;;;;;4972880;28;20224;-60
2023/06/29 08:37:31;;;;;;;31.60;22.23;;;;;;;;;;4973562;28;20209;-60
2023/06/29 08:39:56;;;;;;;33.97;21.92;;;;;;;;;;4972347;28;20210;-60
2023/06/29 08:42:23;;;;;;;31.92;22.50;;;;;;;;;;4973020;28;20229;-60
2023/06/29 08:44:49;;;;;;;31.25;22.45;;;;;;;;;;4972069;28;20304;-60
2023/06/29 08:47:14;;;;;;;30.58;22.10;;;;;;;;;;4972040;28;20305;-60
2023/06/29 08:49:39;;;;;;;28.75;21.98;;;;;;;;;;4971583;28;20306;-59
2023/06/29 08:52:05;;;;;;;27.95;19.55;;;;;;;;;;4971579;28;20214;-60
2023/06/29 08:54:31;;;;;;;26.73;20.50;;;;;;;;;;4970888;28;20214;-60
2023/06/29 08:56:57;;;;;;;26.10;19.90;;;;;;;;;;4971771;28;20267;-60
2023/06/29 08:59:23;;;;;;;26.67;20.35;;;;;;;;;;4972839;28;20252;-60
2023/06/29 09:01:48;;;;;;;28.08;20.52;;;;;;;;;;4972321;28;20280;-60
2023/06/29 09:04:13;;;;;;;28.95;20.17;;;;;;;;;;4972523;28;20222;-60
2023/06/29 09:06:40;;;;;;;24.75;18.73;;;;;;;;;;4972939;28;20218;-60
2023/06/29 09:09:06;;;;;;;24.30;18.80;;;;;;;;;;4971788;28;20245;-60
2023/06/29 09:11:33;;;;;;;26.33;19.70;;;;;;;;;;4971540;28;20691;-60
2023/06/29 09:14:02;;;;;;;26.80;18.75;;;;;;;;;;4972412;28;20214;-60
2023/06/29 09:16:28;;;;;;;27.55;18.77;;;;;;;;;;4971156;28;20236;-60
2023/06/29 09:18:54;;;;;;;24.42;18.15;;;;;;;;;;4972862;28;20681;-60
2023/06/29 09:21:21;;;;;;;24.60;18.63;;;;;;;;;;4971640;28;20245;-60
2023/06/29 09:23:46;;;;;;;25.45;17.67;;;;;;;;;;4972989;28;20214;-60
2023/06/29 09:26:12;;;;;;;24.98;18.92;;;;;;;;;;4970887;28;20224;-60
2023/06/29 09:28:37;;;;;;;24.27;19.00;;;;;;;;;;4972366;28;20222;-60
2023/06/29 09:31:08;;;;;;;26.77;19.48;;;;;;;;;;4971055;28;20335;-60
2023/06/29 09:33:33;;;;;;;25.80;19.00;;;;;;;;;;4973037;28;20293;-60
2023/06/29 09:35:59;;;;;;;26.65;18.67;;;;;;;;;;4972028;28;20229;-60
2023/06/29 09:38:29;;;;;;;26.80;19.65;;;;;;;;;;4970950;28;20210;-60
2023/06/29 09:40:55;;;;;;;26.65;20.23;;;;;;;;;;4972839;28;20253;-60
2023/06/29 09:43:21;;;;;;;28.95;21.65;;;;;;;;;;4971524;28;20222;-60
2023/06/29 09:45:46;;;;;;;26.92;20.70;;;;;;;;;;4972732;28;20222;-60
2023/06/29 09:48:12;;;;;;;25.95;21.38;;;;;;;;;;4972137;28;20220;-60
2023/06/29 09:50:37;;;;;;;26.25;20.95;;;;;;;;;;4972002;28;20221;-60
2023/06/29 09:53:06;;;;;;;28.75;21.05;;;;;;;;;;4972106;28;20365;-60
2023/06/29 09:55:32;;;;;;;32.25;22.17;;;;;;;;;;4972334;28;20230;-60
2023/06/29 09:57:58;;;;;;;26.05;20.85;;;;;;;;;;4971918;28;20301;-60
2023/06/29 10:00:23;;;;;;;28.02;20.23;;;;;;;;;;4972326;28;20661;-60
2023/06/29 10:02:48;;;;;;;26.65;20.50;;;;;;;;;;4973673;28;20244;-60
2023/06/29 10:05:14;;;;;;;25.75;20.02;;;;;;;;;;4975083;28;20218;-60
2023/06/29 10:07:39;;;;;;;25.73;20.10;;;;;;;;;;4975742;28;20225;-60
2023/06/29 10:10:05;;;;;;;26.75;20.35;;;;;;;;;;4975697;28;20237;-60
2023/06/29 10:12:31;;;;;;;26.30;20.27;;;;;;;;;;4975040;28;20292;-60
2023/06/29 10:14:58;;;;;;;26.63;20.80;;;;;;;;;;4975921;28;20234;-60
2023/06/29 10:17:25;;;;;;;25.83;18.98;;;;;;;;;;4973316;28;20276;-60
2023/06/29 10:19:51;;;;;;;25.60;19.27;;;;;;;;;;4975786;28;20681;-60
2023/06/29 10:22:16;;;;;;;25.67;19.73;;;;;;;;;;4975127;28;20245;-60
2023/06/29 10:24:44;;;;;;;24.60;19.42;;;;;;;;;;4974992;28;20264;-60
2023/06/29 10:27:09;;;;;;;26.38;18.95;;;;;;;;;;4973770;28;20677;-60
2023/06/29 10:29:44;;;;;;;23.95;18.83;;;;;;;;;;4974479;28;20233;-60
2023/06/29 10:32:10;;;;;;;23.75;18.33;;;;;;;;;;4974453;28;20217;-59
2023/06/29 10:34:47;;;;;;;22.50;18.45;;;;;;;;;;4974147;28;20236;-60
2023/06/29 10:37:12;;;;;;;27.60;20.02;;;;;;;;;;4973755;28;20221;-60
2023/06/29 10:39:37;;;;;;;24.38;18.63;;;;;;;;;;4973331;28;20214;-60
2023/06/29 10:42:09;;;;;;;23.10;17.45;;;;;;;;;;4974938;28;20222;-60
2023/06/29 10:44:34;;;;;;;27.10;18.10;;;;;;;;;;4975323;28;20676;-60
2023/06/29 10:46:59;;;;;;;24.77;18.08;;;;;;;;;;4974609;28;20225;-60
2023/06/29 10:49:25;;;;;;;23.60;16.77;;;;;;;;;;4974765;28;20688;-60
2023/06/29 10:51:52;;;;;;;28.33;19.15;;;;;;;;;;4975392;28;20221;-60
2023/06/29 10:54:20;;;;;;;23.98;18.63;;;;;;;;;;4973866;28;20217;-60
2023/06/29 10:56:57;;;;;;;27.02;20.25;;;;;;;;;;4974939;28;20261;-60
2023/06/29 10:59:22;;;;;;;25.20;19.83;;;;;;;;;;4974675;28;20236;-60
2023/06/29 11:01:48;;;;;;;26.08;19.48;;;;;;;;;;4973190;28;20593;-60
2023/06/29 11:04:13;;;;;;;28.27;21.33;;;;;;;;;;4974444;28;20292;-60
2023/06/29 11:06:38;;;;;;;28.30;21.33;;;;;;;;;;4974370;28;20726;-60
2023/06/29 11:09:10;;;;;;;26.45;19.58;;;;;;;;;;4974141;28;20824;-60
2023/06/29 11:11:35;;;;;;;26.23;19.98;;;;;;;;;;4974971;28;20217;-60
2023/06/29 11:14:03;;;;;;;23.13;18.83;;;;;;;;;;4973390;28;20232;-60
2023/06/29 11:16:30;;;;;;;26.70;20.05;;;;;;;;;;4974759;28;20272;-60
2023/06/29 11:18:56;;;;;;;24.33;18.85;;;;;;;;;;4973186;28;20218;-60
2023/06/29 11:21:21;;;;;;;24.17;17.50;;;;;;;;;;4973779;28;20260;-60
2023/06/29 11:23:53;;;;;;;21.30;16.25;;;;;;;;;;4973133;28;20218;-60
2023/06/29 11:26:20;;;;;;;24.15;16.35;;;;;;;;;;4974245;28;20206;-60
2023/06/29 11:28:47;;;;;;;20.90;15.63;;;;;;;;;;4973490;28;20249;-60
2023/06/29 11:31:14;;;;;;;22.02;15.13;;;;;;;;;;4974268;28;20289;-59
2023/06/29 11:33:45;;;;;;;24.42;16.13;;;;;;;;;;4973194;28;20631;-60
2023/06/29 11:36:11;;;;;;;22.65;15.57;;;;;;;;;;4973338;28;20681;-60
2023/06/29 11:38:36;;;;;;;21.23;15.85;;;;;;;;;;4974316;28;20214;-60
2023/06/29 11:41:02;;;;;;;20.45;15.15;;;;;;;;;;4974124;28;20217;-60
2023/06/29 11:43:29;;;;;;;20.58;14.40;;;;;;;;;;4971935;28;20221;-60
2023/06/29 11:45:55;;;;;;;18.13;14.82;;;;;;;;;;4974345;28;20213;-60
2023/06/29 11:48:20;;;;;;;19.52;14.77;;;;;;;;;;4973870;28;20245;-60
2023/06/29 11:50:48;;;;;;;19.33;15.10;;;;;;;;;;4973571;28;20421;-60
2023/06/29 11:53:14;;;;;;;19.73;14.77;;;;;;;;;;4973812;28;20214;-60
2023/06/29 11:55:39;;;;;;;19.45;15.77;;;;;;;;;;4973718;28;20237;-60
2023/06/29 11:58:05;;;;;;;20.77;15.63;;;;;;;;;;4971678;28;20220;-60
2023/06/29 12:00:31;;;;;;;19.35;15.98;;;;;;;;;;4974091;28;20220;-60
2023/06/29 12:02:56;;;;;;;21.25;16.17;;;;;;;;;;4973374;28;20583;-60
2023/06/29 12:05:25;;;;;;;21.20;16.05;;;;;;;;;;4973268;28;20213;-60
2023/06/29 12:07:50;;;;;;;20.17;16.15;;;;;;;;;;4973873;28;20246;-60
2023/06/29 12:10:19;;;;;;;21.75;16.38;;;;;;;;;;4972316;28;20320;-60
2023/06/29 12:12:45;;;;;;;23.35;17.40;;;;;;;;;;4973876;28;20229;-60
2023/06/29 12:15:12;;;;;;;23.13;17.42;;;;;;;;;;4972865;28;20631;-60
2023/06/29 12:17:37;;;;;;;22.48;18.25;;;;;;;;;;4973105;28;20681;-60
2023/06/29 12:20:10;;;;;;;23.17;18.08;;;;;;;;;;4973147;28;20308;-60
2023/06/29 12:22:36;;;;;;;22.42;17.52;;;;;;;;;;4973806;28;20301;-60
2023/06/29 12:25:02;;;;;;;22.85;17.45;;;;;;;;;;4971584;28;20309;-60
2023/06/29 12:27:27;;;;;;;22.50;16.88;;;;;;;;;;4973500;28;20229;-60
2023/06/29 12:29:52;;;;;;;25.88;19.08;;;;;;;;;;4973504;28;20230;-60
2023/06/29 12:32:18;;;;;;;24.02;18.98;;;;;;;;;;4972319;28;20241;-60
2023/06/29 12:34:43;;;;;;;25.75;18.63;;;;;;;;;;4973446;28;20241;-60
2023/06/29 12:37:08;;;;;;;24.02;18.75;;;;;;;;;;4972987;28;20210;-60
2023/06/29 12:39:34;;;;;;;24.33;19.08;;;;;;;;;;4972471;28;20248;-60
2023/06/29 12:42:00;;;;;;;24.88;19.17;;;;;;;;;;4973317;28;20214;-60
2023/06/29 12:44:26;;;;;;;23.83;18.80;;;;;;;;;;4992305;28;20216;-60
2023/06/29 12:46:51;;;;;;;24.17;19.08;;;;;;;;;;4991863;28;20267;-60
2023/06/29 12:49:17;;;;;;;25.40;19.83;;;;;;;;;;4992257;28;20237;-60
2023/06/29 12:51:42;;;;;;;25.33;19.80;;;;;;;;;;4992719;28;20248;-60
2023/06/29 12:54:09;;;;;;;25.70;20.85;;;;;;;;;;4991376;28;20220;-60
2023/06/29 12:56:34;;;;;;;27.83;19.90;;;;;;;;;;4992353;28;20237;-60
2023/06/29 12:59:00;;;;;;;27.42;21.38;;;;;;;;;;4992274;28;20227;-60
2023/06/29 13:01:25;;;;;;;30.80;21.63;;;;;;;;;;4992036;28;20217;-60
2023/06/29 13:03:50;;;;;;;31.17;22.58;;;;;;;;;;4992704;28;20209;-60
2023/06/29 13:06:16;;;;;;;30.08;22.23;;;;;;;;;;4991061;28;20237;-60
2023/06/29 13:08:41;;;;;;;26.60;22.27;;;;;;;;;;4986935;28;20222;-60
2023/06/29 13:11:07;;;;;;;33.30;22.08;;;;;;;;;;4972447;28;20308;-60
2023/06/29 13:13:32;;;;;;;30.83;22.08;;;;;;;;;;4972392;28;20304;-60
2023/06/29 13:15:57;;;;;;;30.58;22.70;;;;;;;;;;4972716;28;20305;-60
2023/06/29 13:18:24;;;;;;;31.38;22.73;;;;;;;;;;4972499;28;20216;-60
2023/06/29 13:20:49;;;;;;;29.50;22.75;;;;;;;;;;4972216;28;20217;-60
2023/06/29 13:23:14;;;;;;;29.50;23.80;;;;;;;;;;4972487;28;20631;-60
2023/06/29 13:25:40;;;;;;;30.38;25.15;;;;;;;;;;4972817;28;20210;-60
2023/06/29 13:28:05;;;;;;;32.58;24.77;;;;;;;;;;4971630;28;20217;-60
2023/06/29 13:30:31;;;;;;;35.28;26.15;;;;;;;;;;4972823;28;20214;-60
2023/06/29 13:32:56;;;;;;;32.22;24.85;;;;;;;;;;4972879;28;20245;-60
2023/06/29 13:35:22;;;;;;;33.72;25.52;;;;;;;;;;4971674;28;20345;-60
2023/06/29 13:37:47;;;;;;;32.45;25.27;;;;;;;;;;4975283;28;20216;-60
2023/06/29 13:40:12;;;;;;;34.60;26.13;;;;;;;;;;4976202;28;20218;-60
2023/06/29 13:42:38;;;;;;;32.83;24.20;;;;;;;;;;4975688;28;20241;-60
2023/06/29 13:45:03;;;;;;;35.53;25.42;;;;;;;;;;4975935;28;20206;-60
2023/06/29 13:47:29;;;;;;;36.15;24.08;;;;;;;;;;4976303;28;20218;-60
2023/06/29 13:49:54;;;;;;;34.30;25.67;;;;;;;;;;4975789;28;20296;-60
2023/06/29 13:52:19;;;;;;;35.40;26.17;;;;;;;;;;4975797;28;20221;-61
2023/06/29 13:54:45;;;;;;;33.75;25.83;;;;;;;;;;4975803;28;20571;-61
2023/06/29 13:57:10;;;;;;;32.00;25.55;;;;;;;;;;4974342;28;20225;-61
2023/06/29 13:59:35;;;;;;;35.47;26.98;;;;;;;;;;4976014;28;20296;-61
2023/06/29 14:02:01;;;;;;;33.78;27.70;;;;;;;;;;4975008;28;20210;-61
2023/06/29 14:04:26;;;;;;;34.50;26.98;;;;;;;;;;4974973;28;20236;-61
2023/06/29 14:06:52;;;;;;;33.03;26.58;;;;;;;;;;4975926;28;20232;-61